Accueil
METAR-TAF:

METAR-TAF

Aéroports :

Tahiti, Polynésie française

Aéroport international de Tahiti-Faaa

latitude: 17-33S, longitude: 149-37W, altitude: 2 m

Observation

Le bulletin a été fait il y a 36 minutes, à 11:30 UTC
Vent 3 kt de est
Température 26°C
Humidité 79%
Pression 1010 hPa
Visibilité 10 km ou plus
Quelques nuages à une hauteur de 2300 ft
Nuages épars à une hauteur de 6600 ft

METAR: NTAA 221130Z 10003KT 9999 FEW023 SCT066 26/22 Q1010 NOSIG

Heure: 02:06 (12:06 UTC)

Prévision

Le bulletin a été fait il y a 7 heures et 6 minutes, à 05:00 UTC
Prévision valable du 22 à 06 UTC au 23 à 12 UTC
Vent 3 kt de direction variable
Visibilité 10 km ou plus
Quelques nuages à une hauteur de 2300 ft
Nuages épars à une hauteur de 5000 ft
Probabilité 30% :
Temporairement
du 22 à 20 UTC au 23 à 02 UTC
Vent 15 kt de nord-est avec des rafales jusqu'à 25 kt

TAF: NTAA 220500Z 2206/2312 VRB03KT 9999 FEW023 SCT050 PROB30 TEMPO 2220/2302 05015G25KT

Observations et prévisions météorologiques de plus de 4000 aéroports (messages METAR et TAF).

Les stations disponibles sont représentées par des disques jaunes et rouges sur la carte.

Passer la souris dessus pour voir le nom de la station.

Cliquer dessus pour voir les observations et prévisions météorologiques.

Pour changer de carte: cliquez sur les boutons verts avec une croix noire pour zoomer, sur le bouton vert avec un tiret pour effectuer un zoom arrière, ou sur les flèches vertes pour les cartes adjacentes.


METAR-TAF: